Flight Track Log - Related Links

Times and Time Zones

All times are in EDT time to prevent confusion due to time zone crossing. See the UAL614 flight status page for this flight to view local times or setup timezone preferences in your user account.

Time Position Orientation Groundspeed Altitude Reporting Facility
EDT Latitude Longitude Course Direction KTS MPH feet Rate Location/Type
Sun 12:04:18 PM 39.8667 -104.5500 96° East 235 270 7,400  Level Denver TRACON
Sun 12:05:12 PM 39.8333 -104.4667 117° Southeast 280 322 9,000 1,444 Climbing Denver TRACON
Sun 12:06:00 PM 39.7944 -104.1714 101° East  Level FlightAware Approximate
Sun 12:06:06 PM 39.8167 -104.3833 105° East 308 354 10,000  Level Denver TRACON
Sun 12:07:00 PM 39.7667 -104.0085 90° East  Level FlightAware Approximate
Sun 12:07:00 PM 39.8000 -104.2833 102° East 304 350 11,600  Level Denver TRACON
Sun 12:08:00 PM 39.7533 -103.8429 99° East  Level FlightAware Approximate
Sun 12:08:24 PM 39.7839 -104.1300 98° East 320 368 14,300  Level Denver Center
Sun 12:09:00 PM 39.7331 -103.6796 96° East  Level FlightAware Approximate
Sun 12:09:26 PM 39.7686 -103.9839 98° East 382 440 15,900  Level Denver Center
Sun 12:10:28 PM 39.7528 -103.8422 98° East 392 451 17,800 1,721 Climbing Denver Center
Sun 12:11:42 PM 39.7289 -103.6947 102° East 408 470 19,800 1,664 Climbing Denver Center
Sun 12:12:45 PM 39.6839 -103.5203 108° East 424 488 21,600 1,632 Climbing Denver Center
Sun 12:13:47 PM 39.6439 -103.3692 109° East 440 506 23,200 1,500 Climbing Denver Center
Sun 12:14:49 PM 39.6017 -103.2142 109° East 454 522 24,700 1,452 Climbing Denver Center
Sun 12:15:51 PM 39.5494 -103.0239 110° East 468 539 26,200 1,355 Climbing Denver Center
Sun 12:16:53 PM 39.5044 -102.8597 110° East 481 554 27,500 1,210 Climbing Denver Center
Sun 12:17:55 PM 39.4586 -102.6928 110° East 491 565 28,700 1,161 Climbing Denver Center
Sun 12:18:57 PM 39.4111 -102.5233 110° East 500 575 29,900 1,355 Climbing Denver Center
Sun 12:19:59 PM 39.3578 -102.3292 110° East 503 579 31,500 1,403 Climbing Denver Center
Sun 12:21:01 PM 39.3139 -102.1753 110° East 503 579 32,800 720 Climbing Denver Center
Sun 12:22:04 PM 39.2597 -101.9842 110° East 506 582 33,000 581 Climbing Denver Center
Sun 12:23:05 PM 39.2208 -101.8483 110° East 508 585 34,000 968 Climbing Denver Center
Sun 12:24:08 PM 39.1553 -101.6211 110° East 513 590 35,000 480 Climbing Denver Center
Sun 12:25:10 PM 39.1061 -101.4547 111° Southeast 519 597 35,000 242 Level Denver Center
Sun 12:26:12 PM 39.0503 -101.2619 110° East 518 596 35,500 726 Climbing Denver Center
Sun 12:27:14 PM 39.0031 -101.1011 111° Southeast 517 595 36,500 726 Climbing Denver Center
Sun 12:28:16 PM 38.9458 -100.9094 111° Southeast 515 593 37,000 242 Climbing Denver Center
Sun 12:29:18 PM 38.8978 -100.7436 110° East 516 594 37,000  Level Denver Center
Sun 12:30:20 PM 38.8400 -100.5497 111° Southeast 518 596 37,000  Level Denver Center
Sun 12:31:22 PM 38.7894 -100.3825 111° Southeast 522 601 37,000  Level Denver Center
Sun 12:32:24 PM 38.7389 -100.2178 111° Southeast 520 598 37,000  Level Denver Center
Sun 12:33:26 PM 38.6797 -100.0247 111° Southeast 520 598 37,000  Level Denver Center
Sun 12:34:28 PM 38.6286 -99.8589 111° Southeast 521 600 37,000  Level Denver Center
Sun 12:35:30 PM 38.5700 -99.6672 111° Southeast 519 597 37,000  Level Denver Center
Sun 12:36:45 PM 38.5058 -99.4633 112° Southeast 513 590 37,000  Level Kansas City Center
Sun 12:37:47 PM 38.4506 -99.2953 113° Southeast 512 589 37,000  Level Kansas City Center
Sun 12:38:49 PM 38.3797 -99.1381 120° Southeast 511 588 37,000  Level Kansas City Center
Sun 12:39:51 PM 38.3103 -98.9794 119° Southeast 512 589 37,000  Level Kansas City Center
Sun 12:40:53 PM 38.2406 -98.8219 119° Southeast 513 590 37,000  Level Kansas City Center
Sun 12:41:55 PM 38.1561 -98.6328 120° Southeast 513 590 37,000  Level Kansas City Center
Sun 12:42:57 PM 38.0853 -98.4764 120° Southeast 512 589 37,000  Level Kansas City Center
Sun 12:43:59 PM 38.0222 -98.3161 116° Southeast 510 587 37,000  Level Kansas City Center
Sun 12:45:01 PM 37.9600 -98.1542 116° Southeast 513 590 37,000  Level Kansas City Center
Sun 12:46:03 PM 37.8925 -97.9839 117° Southeast 509 586 37,000  Level Kansas City Center
Sun 12:47:05 PM 37.8311 -97.8208 115° Southeast 511 588 37,000  Level Kansas City Center
Sun 12:48:07 PM 37.7647 -97.6519 116° Southeast 519 597 37,000  Level Kansas City Center
Sun 12:49:09 PM 37.7019 -97.4917 116° Southeast 512 589 37,000  Level Kansas City Center
Sun 12:50:11 PM 37.6381 -97.3261 116° Southeast 507 583 37,000  Level Kansas City Center
Sun 12:51:13 PM 37.5756 -97.1656 116° Southeast 509 586 37,000  Level Kansas City Center
Sun 12:52:15 PM 37.4994 -96.9747 117° Southeast 509 586 37,000 339 Level Kansas City Center
Sun 12:53:17 PM 37.4350 -96.8133 117° Southeast 513 590 37,700 726 Climbing Kansas City Center
Sun 12:54:19 PM 37.3719 -96.6539 116° Southeast 511 588 38,500 629 Climbing Kansas City Center
Sun 12:55:21 PM 37.3075 -96.4925 117° Southeast 515 593 39,000 242 Climbing Kansas City Center
Sun 12:56:23 PM 37.2358 -96.3094 116° Southeast 511 588 39,000  Level Kansas City Center
Sun 12:57:25 PM 37.1697 -96.1500 117° Southeast 512 589 39,000  Level Kansas City Center
Sun 12:58:27 PM 37.1044 -95.9894 117° Southeast 513 590 39,000  Level Kansas City Center
Sun 12:59:30 PM 37.0394 -95.8289 117° Southeast 514 592 39,000  Level Kansas City Center
Sun 01:00:32 PM 36.9722 -95.6697 118° Southeast 514 592 39,000  Level Kansas City Center
Sun 01:01:34 PM 36.9058 -95.5108 118° Southeast 512 589 39,000  Level Kansas City Center
Sun 01:02:36 PM 36.8403 -95.3528 117° Southeast 509 586 39,000  Level Kansas City Center
Sun 01:03:38 PM 36.7600 -95.1631 118° Southeast 509 586 39,000  Level Kansas City Center
Sun 01:04:40 PM 36.6919 -95.0031 118° Southeast 514 592 39,000  Level Kansas City Center
Sun 01:05:42 PM 36.6239 -94.8467 118° Southeast 511 588 39,000  Level Kansas City Center
Sun 01:06:44 PM 36.5575 -94.6894 118° Southeast 510 587 39,000  Level Kansas City Center
Sun 01:07:46 PM 36.4917 -94.5322 117° Southeast 510 587 39,000  Level Kansas City Center
Sun 01:08:48 PM 36.4231 -94.3767 119° Southeast 510 587 39,000  Level Kansas City Center
Sun 01:09:50 PM 36.3547 -94.2211 119° Southeast 511 588 39,000  Level Kansas City Center
Sun 01:10:20 PM 36.3061 -94.1247 122° Southeast 513 590 39,000  Level Memphis Center
Sun 01:11:20 PM 36.2419 -93.9672 117° Southeast 518 596 39,000  Level Memphis Center
Sun 01:12:20 PM 36.1756 -93.8128 118° Southeast 518 596 39,000  Level Memphis Center
Sun 01:13:20 PM 36.1086 -93.6608 119° Southeast 512 589 39,000  Level Memphis Center
Sun 01:14:20 PM 36.0475 -93.5250 119° Southeast 507 583 39,000  Level Memphis Center
Sun 01:15:20 PM 35.9806 -93.3736 119° Southeast 507 583 39,000  Level Memphis Center
Sun 01:16:20 PM 35.9131 -93.2197 118° Southeast 507 583 39,000  Level Memphis Center
Sun 01:17:20 PM 35.8458 -93.0664 118° Southeast 507 583 39,000  Level Memphis Center
Sun 01:18:20 PM 35.7778 -92.9183 120° Southeast 507 583 39,000  Level Memphis Center
Sun 01:19:20 PM 35.7122 -92.7656 118° Southeast 507 583 39,000  Level Memphis Center
Sun 01:20:20 PM 35.6419 -92.6128 119° Southeast 507 583 39,000  Level Memphis Center
Sun 01:21:20 PM 35.5736 -92.4653 120° Southeast 507 583 39,000  Level Memphis Center
Sun 01:22:20 PM 35.5053 -92.3131 119° Southeast 507 583 39,000  Level Memphis Center
Sun 01:23:20 PM 35.4344 -92.1636 120° Southeast 507 583 39,000  Level Memphis Center
Sun 01:24:20 PM 35.3656 -92.0172 120° Southeast 507 583 39,000  Level Memphis Center
Sun 01:25:20 PM 35.2967 -91.8683 120° Southeast 507 583 39,000  Level Memphis Center
Sun 01:26:20 PM 35.2275 -91.7169 119° Southeast 507 583 39,000  Level Memphis Center
Sun 01:27:20 PM 35.1539 -91.5658 121° Southeast 507 583 39,000  Level Memphis Center
Sun 01:28:20 PM 35.0864 -91.4153 119° Southeast 507 583 39,000  Level Memphis Center
Sun 01:29:20 PM 35.0083 -91.2572 121° Southeast 502 578 39,000  Level Memphis Center
Sun 01:30:20 PM 34.9342 -91.1069 121° Southeast 502 578 39,000  Level Memphis Center
Sun 01:31:20 PM 34.8642 -90.9594 120° Southeast 507 583 39,000  Level Memphis Center
Sun 01:32:20 PM 34.7917 -90.8097 120° Southeast 507 583 39,000  Level Memphis Center
Sun 01:33:20 PM 34.7211 -90.6628 120° Southeast 507 583 39,000  Level Memphis Center
Sun 01:34:20 PM 34.6631 -90.5414 120° Southeast 507 583 39,000  Level Memphis Center
Sun 01:35:20 PM 34.5756 -90.3647 121° Southeast 514 592 39,000  Level Memphis Center
Sun 01:36:20 PM 34.5022 -90.2161 121° Southeast 514 592 39,000  Level Memphis Center
Sun 01:37:20 PM 34.4292 -90.0650 120° Southeast 514 592 39,000  Level Memphis Center
Sun 01:38:20 PM 34.3556 -89.9169 121° Southeast 514 592 39,000  Level Memphis Center
Sun 01:39:20 PM 34.2839 -89.7689 120° Southeast 514 592 39,000  Level Memphis Center
Sun 01:40:20 PM 34.2103 -89.6214 121° Southeast 508 585 39,000  Level Memphis Center
Sun 01:41:20 PM 34.1383 -89.4739 120° Southeast 508 585 39,000  Level Memphis Center
Sun 01:42:20 PM 34.0683 -89.3292 120° Southeast 508 585 39,000  Level Memphis Center
Sun 01:43:20 PM 33.9939 -89.1847 122° Southeast 503 579 39,000  Level Memphis Center
Sun 01:44:20 PM 33.9300 -89.0553 121° Southeast 503 579 39,000  Level Memphis Center
Sun 01:45:20 PM 33.8575 -88.9114 121° Southeast 503 579 39,000  Level Memphis Center
Sun 01:46:20 PM 33.7783 -88.7628 123° Southeast 497 572 39,000  Level Memphis Center
Sun 01:47:20 PM 33.7075 -88.6217 121° Southeast 491 565 39,000  Level Memphis Center
Sun 01:48:20 PM 33.6367 -88.4808 121° Southeast 491 565 39,000  Level Memphis Center
Sun 01:50:42 PM 33.4669 -88.1500 122° Southeast 491 565 39,000  Level Atlanta Center
Sun 01:51:42 PM 33.3942 -88.0122 122° Southeast 491 565 39,000  Level Atlanta Center
Sun 01:52:42 PM 33.3233 -87.8722 121° Southeast 491 565 39,000  Level Atlanta Center
Sun 01:53:42 PM 33.2525 -87.7350 122° Southeast 486 559 39,000  Level Atlanta Center
Sun 01:54:42 PM 33.1794 -87.5953 122° Southeast 486 559 39,000  Level Atlanta Center
Sun 01:55:42 PM 33.1061 -87.4586 123° Southeast 491 565 39,000  Level Atlanta Center
Sun 01:56:42 PM 33.0347 -87.3194 121° Southeast 491 565 39,000  Level Atlanta Center
Sun 01:57:42 PM 32.9731 -87.1983 121° Southeast 480 552 39,000  Level Atlanta Center
Sun 01:58:42 PM 32.8992 -87.0669 124° Southeast 480 552 39,000  Level Atlanta Center
Sun 01:59:42 PM 32.8294 -86.9261 120° Southeast 485 558 39,000  Level Atlanta Center
Sun 02:00:42 PM 32.7575 -86.7928 123° Southeast 485 558 39,000  Level Atlanta Center
Sun 02:01:42 PM 32.6850 -86.6622 123° Southeast 485 558 39,000  Level Atlanta Center
Sun 02:02:42 PM 32.6169 -86.5344 122° Southeast 479 551 39,000  Level Atlanta Center
Sun 02:03:42 PM 32.5464 -86.4044 123° Southeast 474 545 39,000  Level Atlanta Center
Sun 02:04:42 PM 32.4739 -86.2622 121° Southeast 468 539 39,000  Level Atlanta Center
Sun 02:05:42 PM 32.4008 -86.1397 125° Southeast 468 539 39,000  Level Atlanta Center
Sun 02:06:42 PM 32.3339 -86.0153 122° Southeast 468 539 39,000  Level Atlanta Center
Sun 02:07:42 PM 32.2650 -85.8908 123° Southeast 462 532 39,000  Level Atlanta Center
Sun 02:08:42 PM 32.1958 -85.7667 123° Southeast 457 526 39,000  Level Atlanta Center
Sun 02:10:57 PM 32.0419 -85.4881 123° Southeast 455 524 39,000  Level Jacksonville Center
Sun 02:11:57 PM 31.9711 -85.3661 124° Southeast 455 524 39,000  Level Jacksonville Center
Sun 02:12:57 PM 31.9028 -85.2344 121° Southeast 455 524 39,000  Level Jacksonville Center
Sun 02:13:57 PM 31.8358 -85.1156 124° Southeast 455 524 39,000  Level Jacksonville Center
Sun 02:14:57 PM 31.7589 -84.9889 126° Southeast 455 524 39,000  Level Jacksonville Center
Sun 02:15:57 PM 31.6558 -84.9011 144° Southeast 448 516 39,000  Level Jacksonville Center
Sun 02:16:57 PM 31.5400 -84.8256 151° Southeast 467 537 39,000  Level Jacksonville Center
Sun 02:17:57 PM 31.4283 -84.7503 150° Southeast 467 537 39,000  Level Jacksonville Center
Sun 02:18:57 PM 31.3147 -84.6725 150° Southeast 467 537 39,000  Level Jacksonville Center
Sun 02:19:57 PM 31.2008 -84.5975 151° Southeast 467 537 39,000  Level Jacksonville Center
Sun 02:20:57 PM 31.0850 -84.5228 151° Southeast 473 544 39,000  Level Jacksonville Center
Sun 02:21:57 PM 30.9711 -84.4456 150° Southeast 473 544 39,000  Level Jacksonville Center
Sun 02:22:57 PM 30.8550 -84.3711 151° Southeast 473 544 39,000  Level Jacksonville Center
Sun 02:23:57 PM 30.7453 -84.2919 148° Southeast 473 544 39,000  Level Jacksonville Center
Sun 02:24:57 PM 30.6314 -84.2181 151° Southeast 473 544 39,000  Level Jacksonville Center
Sun 02:25:57 PM 30.5131 -84.1392 150° Southeast 468 539 39,000  Level Jacksonville Center
Sun 02:26:57 PM 30.3969 -84.0631 151° Southeast 468 539 39,000 -400 Level Jacksonville Center
Sun 02:27:57 PM 30.2847 -83.9894 150° Southeast 468 539 38,200 -1,150 Descending Jacksonville Center
Sun 02:28:57 PM 30.1706 -83.9136 150° Southeast 468 539 36,700 -1,500 Descending Jacksonville Center
Sun 02:29:57 PM 30.0564 -83.8406 151° Southeast 468 539 35,200 -900 Descending Jacksonville Center
Sun 02:30:57 PM 29.9442 -83.7700 151° Southeast 468 539 34,900 -100 Descending Jacksonville Center
Sun 02:31:57 PM 29.8256 -83.6947 151° Southeast 468 539 35,000  Climbing Jacksonville Center
Sun 02:32:57 PM 29.7092 -83.6314 155° Southeast 468 539 34,900 -50 Descending Jacksonville Center
Sun 02:33:57 PM 29.5925 -83.5686 155° Southeast 468 539 34,900 -150 Level Jacksonville Center
Sun 02:34:57 PM 29.4883 -83.5128 155° Southeast 463 533 34,600 -700 Descending Jacksonville Center
Sun 02:35:57 PM 29.3717 -83.4503 155° Southeast 463 533 33,500 -1,050 Descending Jacksonville Center
Sun 02:36:57 PM 29.2550 -83.3853 154° Southeast 463 533 32,500 -1,200 Descending Jacksonville Center
Sun 02:37:57 PM 29.1383 -83.3228 155° Southeast 463 533 31,100 -1,140 Descending Jacksonville Center
Sun 02:38:58 PM 29.0217 -83.2606 155° Southeast 463 533 30,200 -1,050 Descending Jacksonville Center
Sun 02:39:57 PM 28.9031 -83.1986 155° Southeast 463 533 29,000 -605 Descending Jacksonville Center
Sun 02:40:57 PM 28.7842 -83.1342 155° Southeast 463 533 29,000  Level Jacksonville Center
Sun 02:41:57 PM 28.6653 -83.0678 154° Southeast 463 533 29,000  Level Jacksonville Center
Sun 02:42:57 PM 28.5483 -83.0061 155° Southeast 463 533 29,000 -50 Level Jacksonville Center
Sun 02:43:57 PM 28.4150 -82.9350 155° Southeast 463 533 28,900  Descending Jacksonville Center
Sun 02:44:29 PM 28.3650 -82.9119 158° South 460 529 29,000 65 Climbing Miami Center
Sun 02:45:29 PM 28.2486 -82.8514 155° Southeast 448 516 29,000 -50 Level Miami Center
Sun 02:46:29 PM 28.1303 -82.7886 155° Southeast 453 521 28,900  Descending Miami Center
Sun 02:47:29 PM 28.0139 -82.7239 154° Southeast 465 535 29,000 50 Climbing Miami Center
Sun 02:48:29 PM 27.8933 -82.6636 156° South 465 535 29,000  Level Miami Center
Sun 02:49:29 PM 27.7625 -82.5958 155° Southeast 473 544 29,000  Level Miami Center
Sun 02:50:29 PM 27.6442 -82.5314 154° Southeast 479 551 29,000  Level Miami Center
Sun 02:51:29 PM 27.5378 -82.4769 156° South 473 544 29,000  Level Miami Center
Sun 02:52:29 PM 27.4192 -82.4175 156° South 473 544 29,000  Level Miami Center
Sun 02:53:29 PM 27.2903 -82.3481 154° Southeast 473 544 29,000  Level Miami Center
Sun 02:54:29 PM 27.1836 -82.2964 157° South 473 544 29,000  Level Miami Center
Sun 02:55:29 PM 27.0486 -82.2247 155° Southeast 480 552 29,000  Level Miami Center
Sun 02:56:29 PM 26.9400 -82.1686 155° Southeast 475 547 29,000 -150 Level Miami Center
Sun 02:57:29 PM 26.8192 -82.1072 156° South 475 547 28,700 -550 Descending Miami Center
Sun 02:58:29 PM 26.7181 -82.0167 141° Southeast 469 540 27,900 -800 Descending Miami Center
Sun 02:59:29 PM 26.6392 -81.8833 123° Southeast 455 524 27,100 -750 Descending Miami Center
Sun 03:00:29 PM 26.5661 -81.7639 124° Southeast 460 529 26,400 -950 Descending Miami Center
Sun 03:01:29 PM 26.4947 -81.6497 125° Southeast 465 535 25,200 -2,300 Descending Miami Center
Sun 03:02:29 PM 26.4311 -81.5450 124° Southeast 460 529 21,800 -3,600 Descending Miami Center
Sun 03:03:29 PM 26.3575 -81.4333 126° Southeast 453 521 18,000 -1,900 Descending Miami Center
Sun 03:04:29 PM 26.2811 -81.3353 131° Southeast 432 497 18,000  Level Miami Center
Sun 03:05:29 PM 26.2083 -81.2608 137° Southeast 390 449 18,000 -4,169 Level Miami Center
Sun 03:06:27 PM 26.1650 -81.1736 119° Southeast 299 344 9,800  Descending Miami Center
Sun 03:07:29 PM 26.1406 -81.0847 107° East 287 330 18,000 4,033 Climbing Miami Center
Sun 03:08:29 PM 26.1219 -81.0033 104° East 287 330 18,000 -5,505 Level Miami Center
Sun 03:09:18 PM 26.1092 -80.9311 101° East 291 335 8,000  Descending Miami Center
Sun 03:10:29 PM 26.1078 -80.8292 91° East 287 330 18,000 4,580 Climbing Miami Center
Sun 03:11:29 PM 26.0978 -80.7411 97° East 287 330 18,000 -6,964 Level Miami Center
Sun 03:12:21 PM 26.0917 -80.6597 95° East 281 323 5,000 -6,555 Descending Miami Center
Sun 03:13:28 PM 26.0833 -80.5672 96° East 278 320 5,000  Level Miami Center
Sun 03:14:29 PM 26.0769 -80.4906 95° East 242 278 5,000 6,446 Level Miami Center
Sun 03:15:29 PM 26.0767 -80.4167 90° East 243 280 18,000 -984 Climbing Miami Center
Sun 03:16:37 PM 26.0744 -80.3425 92° East 217 250 2,900  Descending Miami Center
Sun 03:17:29 PM 26.0758 -80.2847 88° East 215 247 18,000 8,089 Climbing Miami Center
Sun 03:18:29 PM 26.0747 -80.2339 91° East 193 222 18,000 -15,844 Level Miami Center
Sun 03:18:33 PM 26.0747 -80.2339 91° East 150 173 1,100 -17,797 Descending Miami Center
Sun 03:19:28 PM 26.0736 -80.1967 92° East 120 138 500 8,741 Descending Miami Center
Sun 03:20:29 PM 26.0767 -80.1531 86° East 145 167 18,000 17,213 Climbing Miami Center
Sun 03:22:00 PM 26.0667 -80.1500 180° South  Level FlightAware Approximate

Login

Don't have an account? Register now (free) for customized features, flight alerts, and more!